Time;durP1;ratioP1;P1;durP2;ratioP2;P2;SDS_P1;SDS_P2;PMS_P1;PMS_P2;Temp;Humidity;BMP_temperature;BMP_pressure;BME280_temperature;BME280_humidity;BME280_pressure;Samples;Min_cycle;Max_cycle;Signal;HPM_P1;HPM_P2
2023/09/30 00:01:44;;;;;;;16.13;3.38;;;;;;;;;;5030311;28;20009;-71
2023/09/30 00:04:09;;;;;;;10.93;4.28;;;;;;;;;;5027100;28;20025;-71
2023/09/30 00:06:34;;;;;;;16.55;4.13;;;;;;;;;;5030793;28;20026;-71
2023/09/30 00:08:59;;;;;;;16.88;4.32;;;;;;;;;;5030434;28;20017;-71
2023/09/30 00:11:25;;;;;;;13.07;4.23;;;;;;;;;;5030088;28;20021;-71
2023/09/30 00:13:50;;;;;;;11.30;3.47;;;;;;;;;;5030464;28;20342;-71
2023/09/30 00:16:17;;;;;;;11.43;4.17;;;;;;;;;;5027493;28;20009;-71
2023/09/30 00:18:42;;;;;;;22.48;4.70;;;;;;;;;;5021789;28;20280;-71
2023/09/30 00:21:07;;;;;;;16.27;4.03;;;;;;;;;;5022773;28;20401;-71
2023/09/30 00:23:33;;;;;;;20.23;3.53;;;;;;;;;;5020381;28;20040;-71
2023/09/30 00:25:59;;;;;;;13.98;3.75;;;;;;;;;;5022125;28;20275;-71
2023/09/30 00:28:25;;;;;;;17.30;4.05;;;;;;;;;;5027095;28;20021;-71
2023/09/30 00:30:50;;;;;;;17.37;4.30;;;;;;;;;;5025666;28;20028;-71
2023/09/30 00:33:15;;;;;;;14.10;4.43;;;;;;;;;;5023217;28;20273;-71
2023/09/30 00:35:40;;;;;;;22.43;4.00;;;;;;;;;;5026172;28;20416;-71
2023/09/30 00:38:06;;;;;;;14.90;4.88;;;;;;;;;;5020214;28;20415;-71
2023/09/30 00:40:31;;;;;;;23.42;4.47;;;;;;;;;;5020990;28;20480;-72
2023/09/30 00:42:56;;;;;;;10.23;3.67;;;;;;;;;;5021768;28;20029;-71
2023/09/30 00:45:21;;;;;;;13.87;4.13;;;;;;;;;;5027586;28;20295;-70
2023/09/30 00:47:46;;;;;;;9.55;3.65;;;;;;;;;;5043529;28;20670;-72
2023/09/30 00:50:13;;;;;;;18.27;3.77;;;;;;;;;;5022059;28;20021;-71
2023/09/30 00:52:38;;;;;;;11.75;4.72;;;;;;;;;;5025819;28;20766;-71
2023/09/30 00:55:05;;;;;;;22.10;3.70;;;;;;;;;;5027266;28;20035;-71
2023/09/30 00:57:30;;;;;;;16.98;3.75;;;;;;;;;;5028954;28;20526;-71
2023/09/30 00:59:56;;;;;;;20.27;4.93;;;;;;;;;;5028728;28;20048;-71
2023/09/30 01:02:22;;;;;;;18.67;3.50;;;;;;;;;;5026448;28;20558;-71
2023/09/30 01:04:48;;;;;;;15.02;3.80;;;;;;;;;;5027039;28;20016;-71
2023/09/30 01:07:14;;;;;;;14.98;3.53;;;;;;;;;;5028011;28;20176;-71
2023/09/30 01:09:39;;;;;;;7.53;3.17;;;;;;;;;;5029717;28;20097;-71
2023/09/30 01:12:05;;;;;;;12.27;3.90;;;;;;;;;;5026692;28;20049;-71
2023/09/30 01:14:31;;;;;;;16.42;4.25;;;;;;;;;;5027371;28;20028;-71
2023/09/30 01:16:57;;;;;;;16.65;3.95;;;;;;;;;;5026288;28;20025;-71
2023/09/30 01:19:24;;;;;;;14.23;3.65;;;;;;;;;;5027072;28;20023;-71
2023/09/30 01:21:50;;;;;;;17.50;3.67;;;;;;;;;;5029727;28;20484;-71
2023/09/30 01:24:15;;;;;;;13.27;4.47;;;;;;;;;;5029709;28;20018;-71
2023/09/30 01:26:42;;;;;;;12.33;4.33;;;;;;;;;;5026948;28;20368;-71
2023/09/30 01:29:10;;;;;;;12.02;3.72;;;;;;;;;;5027609;28;20287;-71
2023/09/30 01:31:36;;;;;;;12.85;3.80;;;;;;;;;;5022011;28;20018;-71
2023/09/30 01:34:01;;;;;;;19.98;4.40;;;;;;;;;;5020759;28;20028;-71
2023/09/30 01:36:26;;;;;;;15.37;4.17;;;;;;;;;;5019441;28;20032;-71
2023/09/30 01:38:51;;;;;;;16.17;4.27;;;;;;;;;;5023784;28;20306;-71
2023/09/30 01:41:16;;;;;;;18.10;4.40;;;;;;;;;;5027722;28;20280;-71
2023/09/30 01:43:42;;;;;;;20.50;3.93;;;;;;;;;;5030395;28;20272;-71
2023/09/30 01:46:07;;;;;;;14.10;4.17;;;;;;;;;;5032427;28;20769;-71
2023/09/30 01:48:32;;;;;;;15.48;4.07;;;;;;;;;;5034991;28;20275;-71
2023/09/30 01:50:57;;;;;;;15.85;4.25;;;;;;;;;;5034747;28;20022;-71
2023/09/30 01:53:22;;;;;;;18.30;5.97;;;;;;;;;;5033362;28;20021;-72
2023/09/30 01:55:48;;;;;;;14.93;4.17;;;;;;;;;;5033053;28;20413;-72
2023/09/30 01:58:13;;;;;;;16.52;4.40;;;;;;;;;;5031398;28;20287;-72
2023/09/30 02:00:38;;;;;;;20.77;4.28;;;;;;;;;;5032014;28;20018;-72
2023/09/30 02:03:03;;;;;;;16.90;3.90;;;;;;;;;;5033473;28;20392;-72
2023/09/30 02:05:29;;;;;;;13.30;3.67;;;;;;;;;;5035658;28;20380;-72
2023/09/30 02:07:54;;;;;;;14.80;4.85;;;;;;;;;;5031272;28;20276;-72
2023/09/30 02:10:20;;;;;;;14.98;4.50;;;;;;;;;;5034301;28;20460;-71
2023/09/30 02:12:45;;;;;;;14.18;4.07;;;;;;;;;;5032643;28;20159;-71
2023/09/30 02:15:11;;;;;;;19.10;3.80;;;;;;;;;;5030592;28;20049;-71
2023/09/30 02:17:36;;;;;;;10.02;3.95;;;;;;;;;;5026042;28;20033;-71
2023/09/30 02:20:06;;;;;;;20.10;5.43;;;;;;;;;;5031690;28;20028;-71
2023/09/30 02:22:31;;;;;;;16.00;4.30;;;;;;;;;;5029758;28;20017;-71
2023/09/30 02:24:58;;;;;;;15.25;3.72;;;;;;;;;;5031775;28;20017;-71
2023/09/30 02:27:23;;;;;;;11.30;3.93;;;;;;;;;;5033615;28;20095;-71
2023/09/30 02:29:48;;;;;;;13.60;3.77;;;;;;;;;;5037198;28;20268;-71
2023/09/30 02:32:14;;;;;;;9.07;3.47;;;;;;;;;;5037141;28;20318;-71
2023/09/30 02:34:39;;;;;;;12.70;4.28;;;;;;;;;;5041163;28;20279;-71
2023/09/30 02:37:04;;;;;;;10.37;3.77;;;;;;;;;;5034536;28;20033;-71
2023/09/30 02:39:29;;;;;;;14.93;4.33;;;;;;;;;;5039152;28;20268;-71
2023/09/30 02:41:54;;;;;;;12.83;3.70;;;;;;;;;;5035522;28;20303;-71
2023/09/30 02:44:19;;;;;;;12.93;3.90;;;;;;;;;;5038161;28;20263;-71
2023/09/30 02:46:45;;;;;;;10.67;3.90;;;;;;;;;;5032944;28;20029;-71
2023/09/30 02:49:10;;;;;;;15.80;4.40;;;;;;;;;;5033419;28;20303;-70
2023/09/30 02:51:35;;;;;;;14.57;3.30;;;;;;;;;;5033680;28;20319;-70
2023/09/30 02:54:00;;;;;;;16.80;4.20;;;;;;;;;;5029980;28;20791;-70
2023/09/30 02:56:28;;;;;;;16.65;3.97;;;;;;;;;;5025854;28;20278;-70
2023/09/30 02:58:53;;;;;;;10.52;4.20;;;;;;;;;;5031549;28;20076;-70
2023/09/30 03:01:20;;;;;;;18.83;4.35;;;;;;;;;;5031955;28;20460;-71
2023/09/30 03:03:46;;;;;;;18.00;4.60;;;;;;;;;;5035214;28;20017;-71
2023/09/30 03:06:11;;;;;;;16.42;4.78;;;;;;;;;;5029526;28;20024;-70
2023/09/30 03:08:36;;;;;;;22.88;4.55;;;;;;;;;;5029315;28;20026;-71
2023/09/30 03:11:02;;;;;;;16.08;5.03;;;;;;;;;;5029730;28;20506;-71
2023/09/30 03:13:27;;;;;;;19.40;4.13;;;;;;;;;;5030613;28;20043;-70
2023/09/30 03:15:52;;;;;;;29.55;4.97;;;;;;;;;;5031775;28;20039;-71
2023/09/30 03:18:22;;;;;;;23.13;4.95;;;;;;;;;;5024752;28;20036;-71
2023/09/30 03:20:50;;;;;;;16.60;4.63;;;;;;;;;;5028415;28;20067;-71
2023/09/30 03:23:15;;;;;;;18.33;4.30;;;;;;;;;;5024539;28;20488;-71
2023/09/30 03:25:42;;;;;;;14.05;4.38;;;;;;;;;;5030630;28;20056;-70
2023/09/30 03:28:07;;;;;;;16.80;5.05;;;;;;;;;;5031851;28;20021;-70
2023/09/30 03:30:32;;;;;;;11.48;4.13;;;;;;;;;;5035381;28;20071;-70
2023/09/30 03:32:58;;;;;;;12.45;4.68;;;;;;;;;;5032756;28;20041;-70
2023/09/30 03:35:23;;;;;;;17.58;4.35;;;;;;;;;;5033910;28;20023;-70
2023/09/30 03:37:49;;;;;;;21.70;4.10;;;;;;;;;;5032254;28;20372;-70
2023/09/30 03:40:18;;;;;;;17.37;4.07;;;;;;;;;;5030987;28;20160;-70
2023/09/30 03:42:43;;;;;;;16.03;5.23;;;;;;;;;;5028197;28;20292;-71
2023/09/30 03:45:09;;;;;;;17.10;4.25;;;;;;;;;;5029182;28;20307;-71
2023/09/30 03:47:38;;;;;;;18.92;4.22;;;;;;;;;;5032429;28;20472;-71
2023/09/30 03:50:04;;;;;;;19.40;4.88;;;;;;;;;;5028873;28;20061;-71
2023/09/30 03:52:29;;;;;;;14.98;4.90;;;;;;;;;;5027024;28;20365;-71
2023/09/30 03:54:54;;;;;;;12.35;4.95;;;;;;;;;;5028860;28;20037;-71
2023/09/30 03:57:20;;;;;;;19.92;5.07;;;;;;;;;;5029524;28;20079;-71
2023/09/30 03:59:48;;;;;;;16.35;5.30;;;;;;;;;;5029759;28;20049;-71
2023/09/30 04:02:14;;;;;;;16.73;5.47;;;;;;;;;;5029315;28;20025;-71
2023/09/30 04:04:39;;;;;;;17.65;6.07;;;;;;;;;;5027990;28;20418;-72
2023/09/30 04:07:05;;;;;;;21.15;5.70;;;;;;;;;;5028832;28;20025;-72
2023/09/30 04:09:31;;;;;;;17.80;5.22;;;;;;;;;;5030189;28;20530;-72
2023/09/30 04:11:57;;;;;;;20.65;6.38;;;;;;;;;;5029224;28;20052;-71
2023/09/30 04:14:22;;;;;;;19.15;5.75;;;;;;;;;;5032370;28;20131;-71
2023/09/30 04:16:47;;;;;;;28.23;6.30;;;;;;;;;;5033050;28;20034;-71
2023/09/30 04:19:13;;;;;;;19.60;5.40;;;;;;;;;;5026805;28;20601;-71
2023/09/30 04:21:38;;;;;;;23.95;5.63;;;;;;;;;;5032734;28;20276;-71
2023/09/30 04:24:04;;;;;;;15.60;5.37;;;;;;;;;;5028113;28;20032;-71
2023/09/30 04:26:30;;;;;;;20.02;6.22;;;;;;;;;;5035848;28;20268;-71
2023/09/30 04:28:55;;;;;;;19.50;5.80;;;;;;;;;;5029825;28;20025;-71
2023/09/30 04:31:23;;;;;;;13.93;4.73;;;;;;;;;;5031735;28;20037;-71
2023/09/30 04:33:50;;;;;;;17.25;5.38;;;;;;;;;;5027206;28;20286;-70
2023/09/30 04:36:16;;;;;;;16.60;5.00;;;;;;;;;;5028340;28;20064;-70
2023/09/30 04:38:41;;;;;;;15.95;5.85;;;;;;;;;;5031077;28;20167;-70
2023/09/30 04:41:09;;;;;;;20.58;6.72;;;;;;;;;;5033425;28;20026;-70
2023/09/30 04:43:34;;;;;;;20.25;6.00;;;;;;;;;;5032169;28;20045;-70
2023/09/30 04:46:00;;;;;;;15.05;5.55;;;;;;;;;;5027278;28;20107;-71
2023/09/30 04:48:25;;;;;;;32.47;6.65;;;;;;;;;;5025385;28;20025;-71
2023/09/30 04:50:51;;;;;;;20.02;7.22;;;;;;;;;;5025022;28;20071;-71
2023/09/30 04:53:17;;;;;;;17.55;6.18;;;;;;;;;;5027523;28;20028;-71
2023/09/30 04:55:42;;;;;;;21.08;6.10;;;;;;;;;;5030441;28;20021;-71
2023/09/30 04:58:08;;;;;;;21.40;6.38;;;;;;;;;;5025737;28;20017;-71
2023/09/30 05:00:34;;;;;;;27.27;6.30;;;;;;;;;;5025928;28;20100;-71
2023/09/30 05:03:00;;;;;;;20.52;6.55;;;;;;;;;;5028323;28;20033;-71
2023/09/30 05:05:25;;;;;;;17.55;6.03;;;;;;;;;;5024522;28;20017;-71
2023/09/30 05:07:50;;;;;;;30.77;6.87;;;;;;;;;;5029075;28;20369;-71
2023/09/30 05:10:16;;;;;;;15.53;5.33;;;;;;;;;;5026268;28;20268;-71
2023/09/30 05:12:47;;;;;;;24.98;6.90;;;;;;;;;;5030413;28;20248;-71
2023/09/30 05:15:15;;;;;;;23.30;6.25;;;;;;;;;;5027966;28;20751;-71
2023/09/30 05:17:40;;;;;;;20.75;6.05;;;;;;;;;;5024713;28;20103;-71
2023/09/30 05:20:06;;;;;;;26.70;6.17;;;;;;;;;;5028738;28;20479;-71
2023/09/30 05:22:32;;;;;;;22.90;6.05;;;;;;;;;;5030818;28;20263;-71
2023/09/30 05:24:57;;;;;;;14.40;6.32;;;;;;;;;;5030157;28;20021;-71
2023/09/30 05:27:23;;;;;;;15.15;6.13;;;;;;;;;;5027942;28;20021;-71
2023/09/30 05:29:48;;;;;;;19.35;7.22;;;;;;;;;;5026141;28;20041;-71
2023/09/30 05:32:14;;;;;;;21.60;8.15;;;;;;;;;;5027306;28;20021;-71
2023/09/30 05:34:39;;;;;;;38.45;8.15;;;;;;;;;;5033167;28;20457;-70
2023/09/30 05:37:05;;;;;;;30.58;8.00;;;;;;;;;;5026411;28;20037;-71
2023/09/30 05:39:31;;;;;;;21.92;7.15;;;;;;;;;;5027004;28;20022;-71
2023/09/30 05:41:56;;;;;;;22.05;7.68;;;;;;;;;;5029937;28;20034;-70
2023/09/30 05:44:22;;;;;;;22.67;6.82;;;;;;;;;;5029231;28;20055;-70
2023/09/30 05:46:47;;;;;;;24.15;6.75;;;;;;;;;;5026272;28;20033;-71
2023/09/30 05:49:13;;;;;;;18.55;7.10;;;;;;;;;;5026372;28;20037;-71
2023/09/30 05:51:41;;;;;;;24.90;8.85;;;;;;;;;;5029625;28;20021;-71
2023/09/30 05:54:09;;;;;;;16.77;7.28;;;;;;;;;;5030479;28;20079;-71
2023/09/30 05:56:34;;;;;;;24.60;7.47;;;;;;;;;;5026831;28;20021;-71
2023/09/30 05:59:00;;;;;;;17.83;7.27;;;;;;;;;;5026161;28;20481;-71
2023/09/30 06:01:25;;;;;;;16.92;7.65;;;;;;;;;;5027267;28;20359;-71
2023/09/30 06:03:50;;;;;;;15.93;6.57;;;;;;;;;;5027734;28;20052;-71
2023/09/30 06:06:16;;;;;;;17.90;7.68;;;;;;;;;;5026863;28;20272;-71
2023/09/30 06:08:45;;;;;;;19.50;6.70;;;;;;;;;;5027800;28;20033;-71
2023/09/30 06:11:17;;;;;;;19.77;7.43;;;;;;;;;;5025670;28;20021;-71
2023/09/30 06:13:42;;;;;;;19.95;6.88;;;;;;;;;;5018900;28;20036;-72
2023/09/30 06:16:07;;;;;;;21.07;6.93;;;;;;;;;;5018397;28;20025;-72
2023/09/30 06:18:33;;;;;;;19.30;7.57;;;;;;;;;;5026415;28;20365;-71
2023/09/30 06:20:58;;;;;;;18.45;7.93;;;;;;;;;;5023181;28;20367;-71
2023/09/30 06:23:23;;;;;;;16.80;6.32;;;;;;;;;;5020665;28;20022;-71
2023/09/30 06:25:48;;;;;;;19.27;6.27;;;;;;;;;;5023655;28;20673;-71
2023/09/30 06:28:13;;;;;;;19.63;6.67;;;;;;;;;;5017448;28;20279;-71
2023/09/30 06:30:41;;;;;;;18.55;6.43;;;;;;;;;;5025194;28;20312;-71
2023/09/30 06:33:07;;;;;;;18.52;6.88;;;;;;;;;;5025177;28;21649;-71
2023/09/30 06:35:38;;;;;;;18.92;6.45;;;;;;;;;;5025557;28;20057;-71
2023/09/30 06:38:06;;;;;;;15.48;6.78;;;;;;;;;;5028579;28;20029;-71
2023/09/30 06:40:31;;;;;;;14.18;5.95;;;;;;;;;;5026169;28;20032;-71
2023/09/30 06:42:57;;;;;;;14.80;6.28;;;;;;;;;;5026369;28;20022;-71
2023/09/30 06:45:22;;;;;;;16.33;5.55;;;;;;;;;;5027271;28;20393;-72
2023/09/30 06:47:48;;;;;;;13.23;5.90;;;;;;;;;;5025154;28;20025;-72
2023/09/30 06:50:16;;;;;;;17.60;5.70;;;;;;;;;;5028466;28;20291;-71
2023/09/30 06:52:42;;;;;;;13.25;6.20;;;;;;;;;;5025959;28;20836;-71
2023/09/30 06:55:07;;;;;;;17.70;6.50;;;;;;;;;;5026521;28;20033;-71
2023/09/30 06:57:36;;;;;;;15.43;5.82;;;;;;;;;;5021859;28;20022;-71
2023/09/30 07:00:07;;;;;;;14.10;5.95;;;;;;;;;;5029582;28;20025;-71
2023/09/30 07:02:33;;;;;;;17.48;5.43;;;;;;;;;;5029865;28;20021;-72
2023/09/30 07:04:58;;;;;;;14.63;5.13;;;;;;;;;;5030329;28;20546;-70
2023/09/30 07:07:23;;;;;;;11.02;4.95;;;;;;;;;;5027884;28;20100;-71
2023/09/30 07:09:49;;;;;;;13.43;5.50;;;;;;;;;;5028641;28;20038;-73
2023/09/30 07:12:14;;;;;;;13.07;4.57;;;;;;;;;;5026443;28;20502;-71
2023/09/30 07:14:39;;;;;;;10.33;4.80;;;;;;;;;;5026560;28;20287;-73
2023/09/30 07:17:04;;;;;;;12.83;4.23;;;;;;;;;;5026166;28;20275;-71
2023/09/30 07:19:30;;;;;;;9.68;3.95;;;;;;;;;;5024605;28;20443;-72
2023/09/30 07:21:55;;;;;;;12.00;5.18;;;;;;;;;;5027496;28;20373;-73
2023/09/30 07:24:20;;;;;;;12.67;5.40;;;;;;;;;;5022398;28;20079;-72
2023/09/30 07:26:46;;;;;;;12.77;5.72;;;;;;;;;;5026676;28;20388;-72
2023/09/30 07:29:11;;;;;;;9.53;4.40;;;;;;;;;;5022092;28;20021;-73
2023/09/30 07:31:37;;;;;;;14.63;4.63;;;;;;;;;;5026751;28;20064;-73
2023/09/30 07:34:02;;;;;;;12.48;5.25;;;;;;;;;;5025474;28;20037;-73
2023/09/30 07:36:27;;;;;;;12.43;4.80;;;;;;;;;;5024669;28;20021;-73
2023/09/30 07:38:52;;;;;;;12.55;4.22;;;;;;;;;;5027180;28;20098;-73
2023/09/30 07:41:18;;;;;;;15.45;4.47;;;;;;;;;;5023844;28;20065;-73
2023/09/30 07:43:43;;;;;;;14.68;5.80;;;;;;;;;;5023621;28;20018;-73
2023/09/30 07:46:09;;;;;;;12.95;5.30;;;;;;;;;;5023111;28;20025;-72
2023/09/30 07:48:35;;;;;;;10.60;4.88;;;;;;;;;;5026709;28;20026;-72
2023/09/30 07:51:00;;;;;;;18.98;4.25;;;;;;;;;;5028199;28;20061;-72
2023/09/30 07:53:25;;;;;;;13.80;4.18;;;;;;;;;;5028764;28;20029;-72
2023/09/30 07:55:50;;;;;;;13.73;5.13;;;;;;;;;;5026393;28;20029;-72
2023/09/30 07:58:16;;;;;;;10.52;4.38;;;;;;;;;;5024553;28;20553;-72
2023/09/30 08:00:41;;;;;;;13.30;4.93;;;;;;;;;;5025851;28;20018;-72
2023/09/30 08:03:06;;;;;;;16.07;5.60;;;;;;;;;;5023698;28;20087;-71
2023/09/30 08:05:31;;;;;;;15.03;5.83;;;;;;;;;;5023915;28;20287;-71
2023/09/30 08:07:57;;;;;;;21.13;5.03;;;;;;;;;;5025632;28;20696;-71
2023/09/30 08:10:22;;;;;;;11.63;5.75;;;;;;;;;;5024517;28;20026;-72
2023/09/30 08:12:49;;;;;;;13.77;5.43;;;;;;;;;;5023810;28;20029;-72
2023/09/30 08:15:14;;;;;;;13.20;5.22;;;;;;;;;;5025816;28;20276;-72
2023/09/30 08:17:40;;;;;;;13.90;5.38;;;;;;;;;;5020817;28;20029;-72
2023/09/30 08:20:05;;;;;;;14.13;5.88;;;;;;;;;;5025466;28;20048;-72
2023/09/30 08:22:31;;;;;;;10.55;5.78;;;;;;;;;;5026115;28;20024;-72
2023/09/30 08:24:56;;;;;;;17.05;5.38;;;;;;;;;;5023924;28;20029;-72
2023/09/30 08:27:23;;;;;;;15.57;4.88;;;;;;;;;;5024245;28;20029;-72
2023/09/30 08:29:48;;;;;;;13.93;5.45;;;;;;;;;;5021644;28;20029;-72
2023/09/30 08:32:13;;;;;;;13.33;5.87;;;;;;;;;;5024861;28;20037;-72
2023/09/30 08:34:39;;;;;;;15.40;6.03;;;;;;;;;;5023038;28;20048;-72
2023/09/30 08:37:04;;;;;;;12.32;5.82;;;;;;;;;;5022497;28;20589;-72
2023/09/30 08:39:29;;;;;;;17.27;6.00;;;;;;;;;;5022673;28;20040;-72
2023/09/30 08:41:55;;;;;;;16.00;5.43;;;;;;;;;;5021343;28;20113;-72
2023/09/30 08:44:20;;;;;;;18.33;6.38;;;;;;;;;;5023630;28;20310;-72
2023/09/30 08:46:46;;;;;;;13.57;5.50;;;;;;;;;;5022138;28;20026;-72
2023/09/30 08:49:11;;;;;;;14.77;5.57;;;;;;;;;;5025061;28;20340;-72
2023/09/30 08:51:36;;;;;;;19.48;6.00;;;;;;;;;;5023079;28;20045;-72
2023/09/30 08:54:03;;;;;;;18.52;5.30;;;;;;;;;;5024599;28;20535;-72
2023/09/30 08:56:29;;;;;;;19.98;3.92;;;;;;;;;;5026416;28;21480;-72
2023/09/30 08:58:58;;;;;;;14.10;5.57;;;;;;;;;;5026902;28;20388;-72
2023/09/30 09:01:30;;;;;;;16.83;5.18;;;;;;;;;;5030642;28;20476;-72
2023/09/30 09:03:56;;;;;;;24.35;5.38;;;;;;;;;;5030273;28;20025;-72
2023/09/30 09:06:22;;;;;;;12.65;4.70;;;;;;;;;;5028503;28;20022;-71
2023/09/30 09:08:47;;;;;;;12.05;4.85;;;;;;;;;;5031329;28;20144;-72
2023/09/30 09:11:14;;;;;;;12.80;4.85;;;;;;;;;;5031018;28;20036;-72
2023/09/30 09:13:45;;;;;;;20.40;5.00;;;;;;;;;;5027089;28;20021;-72
2023/09/30 09:16:10;;;;;;;11.98;4.30;;;;;;;;;;5028833;28;20079;-72
2023/09/30 09:18:36;;;;;;;10.43;4.00;;;;;;;;;;5029901;28;20021;-72
2023/09/30 09:21:11;;;;;;;16.38;4.57;;;;;;;;;;5025862;28;20036;-71
2023/09/30 09:23:54;;;;;;;15.85;4.60;;;;;;;;;;5024925;28;20049;-72
2023/09/30 09:26:30;;;;;;;11.45;3.40;;;;;;;;;;5026296;28;20018;-72
2023/09/30 09:29:01;;;;;;;11.68;4.00;;;;;;;;;;5028031;28;20021;-71
2023/09/30 09:31:31;;;;;;;11.55;4.03;;;;;;;;;;5027145;28;20017;-72
2023/09/30 09:33:57;;;;;;;12.05;4.07;;;;;;;;;;5024852;28;20029;-71
2023/09/30 09:36:37;;;;;;;11.80;4.70;;;;;;;;;;5027425;28;20056;-72
2023/09/30 09:39:02;;;;;;;16.67;4.10;;;;;;;;;;5024337;28;20026;-72
2023/09/30 09:41:28;;;;;;;14.05;5.38;;;;;;;;;;5028371;28;20491;-72
2023/09/30 09:43:53;;;;;;;14.17;4.60;;;;;;;;;;5029768;28;20388;-71
2023/09/30 09:46:18;;;;;;;13.07;4.60;;;;;;;;;;5028093;28;20051;-72
2023/09/30 09:48:45;;;;;;;9.90;3.75;;;;;;;;;;5027864;28;20499;-72
2023/09/30 09:51:12;;;;;;;17.10;4.43;;;;;;;;;;5025270;28;20041;-72
2023/09/30 09:53:38;;;;;;;11.30;4.13;;;;;;;;;;5028527;28;20025;-72
2023/09/30 09:56:04;;;;;;;16.13;4.03;;;;;;;;;;5021680;28;20151;-72
2023/09/30 09:58:32;;;;;;;12.80;4.43;;;;;;;;;;5028581;28;20112;-72
2023/09/30 10:00:58;;;;;;;10.95;3.25;;;;;;;;;;5029603;28;20013;-72
2023/09/30 10:03:23;;;;;;;14.20;4.40;;;;;;;;;;5028380;28;20079;-72
2023/09/30 10:05:48;;;;;;;10.90;4.30;;;;;;;;;;5031771;28;20021;-72
2023/09/30 10:08:17;;;;;;;9.15;3.50;;;;;;;;;;5031318;28;20093;-72
2023/09/30 10:10:43;;;;;;;9.10;4.13;;;;;;;;;;5025845;28;20052;-72
2023/09/30 10:13:08;;;;;;;18.23;5.40;;;;;;;;;;5033232;28;20025;-72
2023/09/30 10:15:34;;;;;;;11.03;3.90;;;;;;;;;;5032091;28;20032;-72
2023/09/30 10:18:11;;;;;;;12.52;4.28;;;;;;;;;;5032110;28;20025;-72
2023/09/30 10:20:39;;;;;;;14.68;4.55;;;;;;;;;;5032928;28;20021;-72
2023/09/30 10:23:17;;;;;;;13.13;4.60;;;;;;;;;;5032634;28;20021;-72
2023/09/30 10:25:47;;;;;;;14.02;3.80;;;;;;;;;;5032467;28;20021;-72
2023/09/30 10:28:30;;;;;;;11.75;4.00;;;;;;;;;;5032749;28;20021;-72
2023/09/30 10:31:10;;;;;;;14.55;4.03;;;;;;;;;;5028612;28;20415;-72
2023/09/30 10:33:35;;;;;;;17.42;4.28;;;;;;;;;;5032471;28;20018;-73
2023/09/30 10:36:03;;;;;;;11.13;3.85;;;;;;;;;;5032257;28;20635;-72
2023/09/30 10:38:34;;;;;;;8.93;3.55;;;;;;;;;;5031593;28;20029;-72
2023/09/30 10:41:00;;;;;;;16.65;3.60;;;;;;;;;;5032682;28;20092;-73
2023/09/30 10:43:43;;;;;;;8.18;3.72;;;;;;;;;;5026773;28;20109;-72
2023/09/30 10:46:34;;;;;;;12.25;4.03;;;;;;;;;;5031464;28;20380;-72
2023/09/30 10:49:17;;;;;;;9.90;3.53;;;;;;;;;;5025103;28;20119;-72
2023/09/30 10:51:42;;;;;;;17.45;4.47;;;;;;;;;;5029258;28;20074;-72
2023/09/30 10:54:07;;;;;;;9.77;2.70;;;;;;;;;;5032460;28;20390;-72
2023/09/30 10:56:33;;;;;;;9.38;2.95;;;;;;;;;;5030086;28;20097;-72
2023/09/30 10:59:01;;;;;;;9.18;3.42;;;;;;;;;;5030205;28;20024;-72
2023/09/30 11:01:31;;;;;;;15.80;3.75;;;;;;;;;;5032337;28;20100;-72
2023/09/30 11:04:05;;;;;;;14.40;4.40;;;;;;;;;;5031550;28;20030;-72
2023/09/30 11:06:30;;;;;;;9.30;3.63;;;;;;;;;;5031009;28;20069;-72
2023/09/30 11:08:58;;;;;;;15.15;4.97;;;;;;;;;;5032262;28;20472;-72
2023/09/30 11:11:37;;;;;;;10.48;3.45;;;;;;;;;;5030677;28;20108;-72
2023/09/30 11:14:03;;;;;;;11.48;4.38;;;;;;;;;;5032502;28;20017;-72
2023/09/30 11:16:29;;;;;;;10.93;3.72;;;;;;;;;;5030237;28;20025;-73
2023/09/30 11:18:54;;;;;;;9.87;3.30;;;;;;;;;;5030170;28;20017;-73
2023/09/30 11:21:19;;;;;;;14.68;4.93;;;;;;;;;;5031646;28;20260;-73
2023/09/30 11:23:45;;;;;;;16.93;4.83;;;;;;;;;;5032426;28;20017;-72
2023/09/30 11:26:13;;;;;;;14.88;6.32;;;;;;;;;;5031099;28;20284;-73
2023/09/30 11:28:42;;;;;;;14.80;5.95;;;;;;;;;;5031306;28;20101;-73
2023/09/30 11:31:10;;;;;;;9.52;3.78;;;;;;;;;;5031413;28;20031;-73
2023/09/30 11:33:48;;;;;;;10.75;4.20;;;;;;;;;;5031168;28;20021;-73
2023/09/30 11:36:14;;;;;;;13.23;5.32;;;;;;;;;;5029789;28;20021;-73
2023/09/30 11:38:43;;;;;;;14.82;3.92;;;;;;;;;;5031243;28;20423;-72
2023/09/30 11:41:09;;;;;;;11.65;4.65;;;;;;;;;;5030444;28;20025;-73
2023/09/30 11:43:34;;;;;;;8.82;4.32;;;;;;;;;;5031928;28;20109;-74
2023/09/30 11:46:13;;;;;;;15.52;5.20;;;;;;;;;;5031075;28;20036;-73
2023/09/30 11:48:40;;;;;;;16.43;4.60;;;;;;;;;;5030862;28;20117;-73
2023/09/30 11:51:05;;;;;;;13.60;4.40;;;;;;;;;;5029724;28;20358;-73
2023/09/30 11:53:31;;;;;;;15.83;5.13;;;;;;;;;;5031333;28;20096;-73
2023/09/30 11:55:58;;;;;;;17.13;5.18;;;;;;;;;;5030664;28;20608;-72
2023/09/30 11:58:23;;;;;;;12.48;4.88;;;;;;;;;;5029797;28;20009;-73
2023/09/30 12:00:50;;;;;;;13.27;4.57;;;;;;;;;;5031368;28;20083;-73
2023/09/30 12:03:16;;;;;;;13.57;4.18;;;;;;;;;;5030454;28;20025;-73
2023/09/30 12:05:41;;;;;;;13.85;4.93;;;;;;;;;;5031477;28;20024;-72
2023/09/30 12:08:06;;;;;;;13.53;4.33;;;;;;;;;;5029295;28;20437;-73
2023/09/30 12:10:32;;;;;;;18.15;5.13;;;;;;;;;;5031349;28;20314;-72
2023/09/30 12:12:57;;;;;;;12.68;4.45;;;;;;;;;;5031122;28;20106;-73
2023/09/30 12:15:22;;;;;;;12.00;4.37;;;;;;;;;;5030356;28;20104;-73
2023/09/30 12:17:47;;;;;;;16.00;4.65;;;;;;;;;;5030736;28;20284;-72
2023/09/30 12:20:15;;;;;;;10.30;4.27;;;;;;;;;;5030731;28;20028;-73
2023/09/30 12:22:40;;;;;;;12.65;4.28;;;;;;;;;;5031303;28;20017;-72
2023/09/30 12:25:08;;;;;;;10.43;4.27;;;;;;;;;;5030734;28;20038;-72
2023/09/30 12:27:33;;;;;;;14.70;3.88;;;;;;;;;;5030835;28;20263;-72
2023/09/30 12:29:59;;;;;;;9.07;4.00;;;;;;;;;;5031279;28;20017;-72
2023/09/30 12:32:25;;;;;;;12.20;3.70;;;;;;;;;;5028907;28;20276;-72
2023/09/30 12:34:51;;;;;;;12.40;4.53;;;;;;;;;;5028686;28;20025;-72
2023/09/30 12:37:16;;;;;;;12.23;4.25;;;;;;;;;;5029765;28;20102;-73
2023/09/30 12:39:41;;;;;;;8.27;3.50;;;;;;;;;;5030769;28;20421;-72
2023/09/30 12:42:09;;;;;;;9.93;3.43;;;;;;;;;;5031056;28;20018;-72
2023/09/30 12:44:34;;;;;;;11.45;3.65;;;;;;;;;;5030934;28;20607;-72
2023/09/30 12:46:59;;;;;;;9.53;3.07;;;;;;;;;;5029387;28;20017;-72
2023/09/30 12:49:24;;;;;;;7.00;3.03;;;;;;;;;;5030553;28;20264;-73
2023/09/30 12:51:50;;;;;;;9.25;3.60;;;;;;;;;;5029669;28;20079;-72
2023/09/30 12:54:18;;;;;;;15.30;3.90;;;;;;;;;;5031167;28;20060;-72
2023/09/30 12:56:43;;;;;;;10.10;3.60;;;;;;;;;;5030656;28;20670;-73
2023/09/30 12:59:08;;;;;;;13.25;3.78;;;;;;;;;;5030475;28;20021;-72
2023/09/30 13:01:34;;;;;;;9.17;3.40;;;;;;;;;;5028731;28;20017;-72
2023/09/30 13:03:59;;;;;;;7.22;3.15;;;;;;;;;;5028381;28;20626;-74
2023/09/30 13:06:24;;;;;;;15.20;4.25;;;;;;;;;;5030478;28;20668;-72
2023/09/30 13:08:49;;;;;;;12.38;4.10;;;;;;;;;;5030237;28;20026;-73
2023/09/30 13:11:15;;;;;;;11.73;3.75;;;;;;;;;;5030434;28;20100;-73
2023/09/30 13:13:40;;;;;;;13.45;4.60;;;;;;;;;;5030261;28;20017;-73
2023/09/30 13:16:07;;;;;;;10.13;3.38;;;;;;;;;;5029053;28;20018;-73
2023/09/30 13:18:32;;;;;;;14.95;3.72;;;;;;;;;;5028407;28;20048;-73
2023/09/30 13:20:57;;;;;;;14.27;3.97;;;;;;;;;;5023838;28;20029;-73
2023/09/30 13:23:23;;;;;;;10.35;3.85;;;;;;;;;;5027393;28;20552;-73
2023/09/30 13:25:48;;;;;;;11.77;3.50;;;;;;;;;;5025792;28;20032;-74
2023/09/30 13:28:13;;;;;;;18.23;4.03;;;;;;;;;;5024498;28;20295;-73
2023/09/30 13:30:39;;;;;;;6.75;2.88;;;;;;;;;;5021560;28;20998;-73
2023/09/30 13:33:04;;;;;;;9.67;4.20;;;;;;;;;;5029815;28;20079;-73
2023/09/30 13:35:29;;;;;;;9.82;2.83;;;;;;;;;;5024055;28;20523;-74
2023/09/30 13:37:54;;;;;;;8.97;3.10;;;;;;;;;;5026914;28;20030;-73
2023/09/30 13:40:19;;;;;;;9.57;3.10;;;;;;;;;;5029406;28;20248;-74
2023/09/30 13:42:45;;;;;;;6.67;2.80;;;;;;;;;;5030246;28;20264;-73
2023/09/30 13:45:10;;;;;;;8.23;2.38;;;;;;;;;;5027836;28;20271;-73
2023/09/30 13:47:36;;;;;;;9.05;3.03;;;;;;;;;;5025129;28;20030;-73
2023/09/30 13:50:03;;;;;;;9.43;2.65;;;;;;;;;;5026938;28;20032;-74
2023/09/30 13:52:28;;;;;;;12.43;3.38;;;;;;;;;;5029154;28;20472;-74
2023/09/30 13:54:55;;;;;;;10.13;2.40;;;;;;;;;;5027119;28;20052;-74
2023/09/30 13:57:20;;;;;;;14.45;3.63;;;;;;;;;;5027809;28;20296;-73
2023/09/30 13:59:46;;;;;;;7.15;2.53;;;;;;;;;;5023014;28;20025;-73
2023/09/30 14:02:12;;;;;;;8.23;2.65;;;;;;;;;;5020200;28;20013;-73
2023/09/30 14:04:37;;;;;;;9.80;2.67;;;;;;;;;;5024229;28;20022;-73
2023/09/30 14:07:03;;;;;;;9.10;2.95;;;;;;;;;;5025436;28;20093;-73
2023/09/30 14:09:28;;;;;;;9.10;2.42;;;;;;;;;;5026986;28;20025;-73
2023/09/30 14:11:53;;;;;;;13.13;3.50;;;;;;;;;;5027476;28;20586;-73
2023/09/30 14:14:18;;;;;;;8.38;2.45;;;;;;;;;;5020339;28;20448;-73
2023/09/30 14:16:44;;;;;;;7.55;2.78;;;;;;;;;;5024192;28;20044;-74
2023/09/30 14:19:09;;;;;;;9.38;2.55;;;;;;;;;;5022332;28;20032;-74
2023/09/30 14:21:34;;;;;;;8.23;2.87;;;;;;;;;;5028789;28;20381;-74
2023/09/30 14:24:01;;;;;;;7.13;2.73;;;;;;;;;;5023003;28;20097;-74
2023/09/30 14:26:27;;;;;;;6.93;2.58;;;;;;;;;;5024930;28;20044;-73